Terminal Aerodrome Forecast
Issued by NWS

Home | Current Version | Previous Version | Text Only | Print | Product List | Glossary On
Versions: 1 2 3 4 5 6 7 8 9 10 11 12 13 14
000
FTUS46 KSTO 290520
TAFRBL
TAF
KRBL 290520Z 2906/3006 33007KT P6SM SKC
     FM291600 35012KT P6SM SKC
     FM292300 15010KT P6SM SKC
     FM300400 24004KT P6SM SKC=

USA.gov is the U.S. government's official web portal to all federal, state and local government web resources and services.